createdAt,value
2023-02-08T00:02:02.354Z,-0.92
2023-02-08T00:07:09.990Z,-0.93
2023-02-08T00:12:16.239Z,-0.93
2023-02-08T00:17:22.700Z,-0.95
2023-02-08T00:22:30.762Z,-0.94
2023-02-08T00:27:37.224Z,-0.95
2023-02-08T00:32:43.490Z,-0.94
2023-02-08T00:37:52.618Z,-0.99
2023-02-08T00:42:58.644Z,-1.00
2023-02-08T00:48:05.044Z,-1.00
2023-02-08T00:53:12.536Z,-1.02
2023-02-08T00:58:18.491Z,-1.00
2023-02-08T01:03:25.731Z,-1.04
2023-02-08T01:08:33.703Z,-1.11
2023-02-08T01:13:40.875Z,-1.11
2023-02-08T01:18:51.601Z,-1.10
2023-02-08T01:23:59.614Z,-1.15
2023-02-08T01:29:06.681Z,-1.19
2023-02-08T01:34:13.761Z,-1.15
2023-02-08T01:39:24.082Z,-1.13
2023-02-08T01:45:23.630Z,-1.11
2023-02-08T01:50:36.776Z,-1.14
2023-02-08T01:55:49.905Z,-1.17
2023-02-08T02:00:56.493Z,-1.16
2023-02-08T02:06:10.070Z,-1.12
2023-02-08T02:11:20.107Z,-1.16
2023-02-08T02:16:26.314Z,-1.16
2023-02-08T02:21:47.682Z,-1.17
2023-02-08T02:27:33.248Z,-1.17
2023-02-08T02:33:18.597Z,-1.15
2023-02-08T02:38:41.266Z,-1.13
2023-02-08T02:43:53.693Z,-1.15
2023-02-08T02:49:07.584Z,-1.16
2023-02-08T02:54:20.273Z,-1.17
2023-02-08T02:59:28.780Z,-1.19
2023-02-08T03:04:54.707Z,-1.18
2023-02-08T03:10:14.793Z,-1.19
2023-02-08T03:15:32.088Z,-1.21
2023-02-08T03:20:44.640Z,-1.21
2023-02-08T03:25:55.701Z,-1.22
2023-02-08T03:31:12.403Z,-1.21
2023-02-08T03:36:28.883Z,-1.28
2023-02-08T03:41:40.747Z,-1.28
2023-02-08T03:46:53.894Z,-1.34
2023-02-08T03:52:06.890Z,-1.38
2023-02-08T03:57:19.461Z,-1.32
2023-02-08T04:02:30.225Z,-1.38
2023-02-08T04:07:38.320Z,-1.47
2023-02-08T04:12:44.561Z,-1.39
2023-02-08T04:17:50.606Z,-1.35
2023-02-08T04:22:58.570Z,-1.39
2023-02-08T04:28:05.731Z,-1.47
2023-02-08T04:33:13.354Z,-1.54
2023-02-08T04:38:21.212Z,-1.69
2023-02-08T04:43:27.402Z,-1.58
2023-02-08T04:48:33.813Z,-1.81
2023-02-08T04:53:41.378Z,-1.79
2023-02-08T04:58:48.775Z,-1.69
2023-02-08T05:03:54.850Z,-1.76
2023-02-08T05:09:02.385Z,-1.68
2023-02-08T05:14:08.696Z,-1.77
2023-02-08T05:19:14.803Z,-1.66
2023-02-08T05:24:22.324Z,-1.63
2023-02-08T05:29:28.457Z,-1.63
2023-02-08T05:34:36.266Z,-1.64
2023-02-08T05:39:44.260Z,-1.62
2023-02-08T05:44:50.689Z,-1.64
2023-02-08T05:49:56.875Z,-1.65
2023-02-08T05:55:06.439Z,-1.68
2023-02-08T06:00:14.522Z,-1.66
2023-02-08T06:05:23.692Z,-1.60
2023-02-08T06:10:31.616Z,-1.59
2023-02-08T06:15:37.907Z,-1.60
2023-02-08T06:20:44.364Z,-1.61
2023-02-08T06:25:53.953Z,-1.62
2023-02-08T06:31:00.495Z,-1.63
2023-02-08T06:36:07.511Z,-1.64
2023-02-08T06:41:15.220Z,-1.69
2023-02-08T06:46:23.369Z,-1.71
2023-02-08T06:51:29.720Z,-1.63
2023-02-08T06:56:37.160Z,-1.60
2023-02-08T07:01:43.475Z,-1.54
2023-02-08T07:06:50.904Z,-1.51
2023-02-08T07:11:58.478Z,-1.52
2023-02-08T07:17:05.130Z,-1.52
2023-02-08T07:22:11.670Z,-1.51
2023-02-08T07:27:19.634Z,-1.45
2023-02-08T07:32:25.974Z,-1.40
2023-02-08T07:37:33.475Z,-1.37
2023-02-08T07:42:40.986Z,-1.33
2023-02-08T07:48:07.527Z,-1.29
2023-02-08T07:53:13.870Z,-1.27
2023-02-08T07:58:21.531Z,-1.27
2023-02-08T08:03:29.192Z,-1.25
2023-02-08T08:08:35.660Z,-1.15
2023-02-08T08:13:43.497Z,-1.12
2023-02-08T08:18:51.122Z,-0.99
2023-02-08T08:23:57.315Z,-0.89
2023-02-08T08:29:06.745Z,-0.88
2023-02-08T08:34:13.077Z,-0.83
2023-02-08T08:39:19.711Z,-0.79
2023-02-08T08:44:27.447Z,-0.74
2023-02-08T08:49:33.904Z,-0.65
2023-02-08T08:54:40.497Z,-0.64
2023-02-08T08:59:48.320Z,-0.62
2023-02-08T09:04:54.653Z,-0.56
2023-02-08T09:10:00.751Z,-0.51
2023-02-08T09:15:09.923Z,-0.44
2023-02-08T09:20:16.280Z,-0.37
2023-02-08T09:25:22.552Z,-0.31
2023-02-08T09:30:30.482Z,-0.27
2023-02-08T09:35:36.874Z,-0.20
2023-02-08T09:40:57.120Z,-0.17
2023-02-08T09:46:10.000Z,-0.11
2023-02-08T09:51:29.618Z,-0.08
2023-02-08T09:56:40.735Z,-0.01
2023-02-08T10:01:52.249Z,0.05
2023-02-08T10:06:58.625Z,0.07
2023-02-08T10:12:16.967Z,0.09
2023-02-08T10:17:53.357Z,0.12
2023-02-08T10:23:13.828Z,0.15
2023-02-08T10:28:49.652Z,0.21
2023-02-08T10:34:08.128Z,0.26
2023-02-08T10:39:20.175Z,0.31
2023-02-08T10:44:38.029Z,0.31
2023-02-08T10:49:56.858Z,0.33
2023-02-08T10:55:03.595Z,0.34
2023-02-08T11:00:19.607Z,0.46
2023-02-08T11:05:37.727Z,0.47
2023-02-08T11:10:48.410Z,0.47
2023-02-08T11:15:57.971Z,0.47
2023-02-08T11:21:11.486Z,0.47
2023-02-08T11:26:22.585Z,0.48
2023-02-08T11:31:29.031Z,0.50
2023-02-08T11:36:38.993Z,0.54
2023-02-08T11:41:47.655Z,0.55
2023-02-08T11:46:55.830Z,0.55
2023-02-08T11:52:04.006Z,0.56
2023-02-08T11:57:20.852Z,0.57
2023-02-08T12:02:38.833Z,0.58
2023-02-08T12:08:12.889Z,0.65
2023-02-08T12:14:03.436Z,0.69
2023-02-08T12:20:01.220Z,0.61
2023-02-08T12:25:30.227Z,0.61
2023-02-08T12:30:42.034Z,0.62
2023-02-08T12:36:25.365Z,0.62
2023-02-08T12:41:39.692Z,0.65
2023-02-08T12:47:08.101Z,0.65
2023-02-08T12:52:31.813Z,0.63
2023-02-08T12:57:43.459Z,0.63
2023-02-08T13:03:00.554Z,0.64
2023-02-08T13:08:28.294Z,0.66
2023-02-08T13:13:40.559Z,0.67
2023-02-08T13:18:54.637Z,0.69
2023-02-08T13:24:02.025Z,0.69
2023-02-08T13:29:17.730Z,0.66
2023-02-08T13:34:34.356Z,0.68
2023-02-08T13:39:46.578Z,0.67
2023-02-08T13:44:57.940Z,0.62
2023-02-08T13:50:10.069Z,0.61
2023-02-08T13:55:46.120Z,0.58
2023-02-08T14:01:20.721Z,0.58
2023-02-08T14:06:31.081Z,0.54
2023-02-08T14:11:49.700Z,0.52
2023-02-08T14:17:21.807Z,0.52
2023-02-08T14:22:38.014Z,0.46
2023-02-08T14:27:53.017Z,0.43
2023-02-08T14:33:20.050Z,0.41
2023-02-08T14:39:25.146Z,0.33
2023-02-08T14:45:03.897Z,0.22
2023-02-08T14:50:20.713Z,0.21
2023-02-08T14:55:32.147Z,0.15
2023-02-08T15:00:40.632Z,0.04
2023-02-08T15:06:26.219Z,-0.07
2023-02-08T15:11:36.635Z,-0.27
2023-02-08T15:16:45.285Z,-0.29
2023-02-08T15:21:53.318Z,-0.35
2023-02-08T15:26:59.955Z,-0.41
2023-02-08T15:32:13.815Z,-0.42
2023-02-08T15:37:22.322Z,-0.52
2023-02-08T15:42:31.844Z,-0.61
2023-02-08T15:47:40.289Z,-0.74
2023-02-08T15:52:49.744Z,-0.79
2023-02-08T15:58:03.166Z,-0.89
2023-02-08T16:03:18.218Z,-0.89
2023-02-08T16:08:29.167Z,-0.99
2023-02-08T16:13:40.654Z,-1.04
2023-02-08T16:18:50.435Z,-1.09
2023-02-08T16:24:00.274Z,-1.14
2023-02-08T16:29:09.653Z,-1.23
2023-02-08T16:34:21.471Z,-1.27
2023-02-08T16:39:58.464Z,-1.58
2023-02-08T16:45:22.947Z,-1.61
2023-02-08T16:50:30.800Z,-1.87
2023-02-08T16:55:39.828Z,-1.83
2023-02-08T17:00:47.159Z,-2.01
2023-02-08T17:05:55.101Z,-1.90
2023-02-08T17:11:03.732Z,-2.09
2023-02-08T17:16:16.663Z,-1.97
2023-02-08T17:21:24.180Z,-1.95
2023-02-08T17:26:42.623Z,-2.07
2023-02-08T17:31:51.913Z,-1.99
2023-02-08T17:36:59.357Z,-2.08
2023-02-08T17:42:12.650Z,-2.13
2023-02-08T17:47:21.071Z,-2.22
2023-02-08T17:52:29.482Z,-2.45
2023-02-08T17:57:41.686Z,-2.37
2023-02-08T18:02:52.423Z,-2.39
2023-02-08T18:08:00.194Z,-2.49
2023-02-08T18:13:11.763Z,-2.56
2023-02-08T18:18:21.063Z,-2.67
2023-02-08T18:23:29.641Z,-3.05
2023-02-08T18:28:39.529Z,-3.19
2023-02-08T18:33:48.224Z,-3.26
2023-02-08T18:39:00.994Z,-3.32
2023-02-08T18:44:13.412Z,-3.34
2023-02-08T18:49:22.517Z,-3.47
2023-02-08T18:54:31.917Z,-3.58
2023-02-08T18:59:42.833Z,-3.79
2023-02-08T19:04:52.005Z,-3.96
2023-02-08T19:10:08.401Z,-3.75
2023-02-08T19:15:20.796Z,-3.84
2023-02-08T19:20:32.600Z,-3.88
2023-02-08T19:25:43.260Z,-3.89
2023-02-08T19:30:54.337Z,-3.98
2023-02-08T19:36:11.803Z,-3.94
2023-02-08T19:41:24.396Z,-3.93
2023-02-08T19:46:36.613Z,-3.91
2023-02-08T19:51:44.810Z,-3.99
2023-02-08T19:56:55.555Z,-4.56
2023-02-08T20:02:07.836Z,-4.37
2023-02-08T20:07:16.922Z,-4.24
2023-02-08T20:12:26.409Z,-4.29
2023-02-08T20:17:36.970Z,-4.51
2023-02-08T20:22:45.926Z,-4.61
2023-02-08T20:28:01.119Z,-4.81
2023-02-08T20:33:11.205Z,-4.79
2023-02-08T20:38:23.068Z,-5.04
2023-02-08T20:43:31.222Z,-4.97
2023-02-08T20:48:41.546Z,-4.89
2023-02-08T20:53:54.244Z,-4.93
2023-02-08T20:59:06.971Z,-4.98
2023-02-08T21:04:20.605Z,-5.12
2023-02-08T21:09:29.106Z,-5.00
2023-02-08T21:14:36.741Z,-5.39
2023-02-08T21:19:44.798Z,-5.42
2023-02-08T21:24:52.270Z,-5.66
2023-02-08T21:29:59.680Z,-5.90
2023-02-08T21:35:08.612Z,-5.96
2023-02-08T21:40:15.424Z,-5.71
2023-02-08T21:45:22.098Z,-5.65
2023-02-08T21:50:48.231Z,-5.85
2023-02-08T21:55:54.700Z,-5.63
2023-02-08T22:01:01.073Z,-5.60
2023-02-08T22:06:27.199Z,-5.80
2023-02-08T22:11:33.573Z,-5.79
2023-02-08T22:16:40.434Z,-5.81
2023-02-08T22:21:47.999Z,-6.11
2023-02-08T22:26:54.374Z,-5.98
2023-02-08T22:32:01.381Z,-6.09
2023-02-08T22:37:09.665Z,-5.99
2023-02-08T22:42:15.834Z,-6.31
2023-02-08T22:47:22.363Z,-6.01
2023-02-08T22:52:30.648Z,-5.98
2023-02-08T22:57:38.025Z,-6.06
2023-02-08T23:02:44.227Z,-6.10
2023-02-08T23:07:52.189Z,-6.55
2023-02-08T23:12:58.407Z,-6.57
2023-02-08T23:18:04.855Z,-6.57
2023-02-08T23:23:12.663Z,-6.58
2023-02-08T23:28:18.866Z,-6.61
2023-02-08T23:33:24.954Z,-6.52
2023-02-08T23:38:32.876Z,-6.70
2023-02-08T23:43:39.590Z,-6.84
2023-02-08T23:48:47.901Z,-6.73
2023-02-08T23:53:56.145Z,-6.96
2023-02-08T23:59:02.669Z,-6.91
